sensor_id;sensor_type;location;lat;lon;timestamp;P1;durP1;ratioP1;P2;durP2;ratioP2
29916;SDS011;16786;49.466;11.068;2023-07-02T00:00:13;4.07;;;2.22;;
29916;SDS011;16786;49.466;11.068;2023-07-02T00:02:40;4.80;;;2.42;;
29916;SDS011;16786;49.466;11.068;2023-07-02T00:05:08;4.13;;;2.53;;
29916;SDS011;16786;49.466;11.068;2023-07-02T00:07:35;4.43;;;2.88;;
29916;SDS011;16786;49.466;11.068;2023-07-02T00:10:04;8.43;;;3.00;;
29916;SDS011;16786;49.466;11.068;2023-07-02T00:12:32;4.20;;;3.03;;
29916;SDS011;16786;49.466;11.068;2023-07-02T00:15:00;3.83;;;2.63;;
29916;SDS011;16786;49.466;11.068;2023-07-02T00:17:29;4.32;;;2.97;;
29916;SDS011;16786;49.466;11.068;2023-07-02T00:19:57;4.15;;;2.80;;
29916;SDS011;16786;49.466;11.068;2023-07-02T00:22:29;5.85;;;2.95;;
29916;SDS011;16786;49.466;11.068;2023-07-02T00:24:58;4.75;;;3.05;;
29916;SDS011;16786;49.466;11.068;2023-07-02T00:27:25;4.10;;;3.05;;
29916;SDS011;16786;49.466;11.068;2023-07-02T00:29:52;5.32;;;3.00;;
29916;SDS011;16786;49.466;11.068;2023-07-02T00:32:20;4.15;;;3.10;;
29916;SDS011;16786;49.466;11.068;2023-07-02T00:34:47;6.40;;;3.83;;
29916;SDS011;16786;49.466;11.068;2023-07-02T00:37:15;5.30;;;3.65;;
29916;SDS011;16786;49.466;11.068;2023-07-02T00:39:42;5.38;;;3.58;;
29916;SDS011;16786;49.466;11.068;2023-07-02T00:42:10;6.20;;;3.70;;
29916;SDS011;16786;49.466;11.068;2023-07-02T00:44:39;4.50;;;3.40;;
29916;SDS011;16786;49.466;11.068;2023-07-02T00:47:07;5.13;;;3.60;;
29916;SDS011;16786;49.466;11.068;2023-07-02T00:49:35;5.05;;;3.53;;
29916;SDS011;16786;49.466;11.068;2023-07-02T00:52:03;5.82;;;3.55;;
29916;SDS011;16786;49.466;11.068;2023-07-02T00:54:31;5.38;;;3.95;;
29916;SDS011;16786;49.466;11.068;2023-07-02T00:56:59;5.75;;;3.70;;
29916;SDS011;16786;49.466;11.068;2023-07-02T00:59:30;5.28;;;3.50;;
29916;SDS011;16786;49.466;11.068;2023-07-02T01:02:01;5.27;;;3.97;;
29916;SDS011;16786;49.466;11.068;2023-07-02T01:04:29;5.18;;;3.80;;
29916;SDS011;16786;49.466;11.068;2023-07-02T01:06:57;8.95;;;3.55;;
29916;SDS011;16786;49.466;11.068;2023-07-02T01:09:25;5.57;;;3.30;;
29916;SDS011;16786;49.466;11.068;2023-07-02T01:11:54;5.88;;;3.67;;
29916;SDS011;16786;49.466;11.068;2023-07-02T01:14:32;5.00;;;3.55;;
29916;SDS011;16786;49.466;11.068;2023-07-02T01:17:08;6.30;;;3.83;;
29916;SDS011;16786;49.466;11.068;2023-07-02T01:22:11;4.90;;;3.45;;
29916;SDS011;16786;49.466;11.068;2023-07-02T01:24:40;5.05;;;3.58;;
29916;SDS011;16786;49.466;11.068;2023-07-02T01:27:08;5.00;;;3.80;;
29916;SDS011;16786;49.466;11.068;2023-07-02T01:29:37;5.53;;;3.80;;
29916;SDS011;16786;49.466;11.068;2023-07-02T01:32:04;6.20;;;3.60;;
29916;SDS011;16786;49.466;11.068;2023-07-02T01:34:32;7.18;;;3.88;;
29916;SDS011;16786;49.466;11.068;2023-07-02T01:37:00;5.60;;;3.53;;
29916;SDS011;16786;49.466;11.068;2023-07-02T01:39:28;5.50;;;3.70;;
29916;SDS011;16786;49.466;11.068;2023-07-02T01:42:06;6.45;;;3.90;;
29916;SDS011;16786;49.466;11.068;2023-07-02T01:44:44;5.28;;;3.47;;
29916;SDS011;16786;49.466;11.068;2023-07-02T01:47:13;6.47;;;3.33;;
29916;SDS011;16786;49.466;11.068;2023-07-02T01:49:42;5.07;;;3.47;;
29916;SDS011;16786;49.466;11.068;2023-07-02T01:52:10;6.82;;;3.75;;
29916;SDS011;16786;49.466;11.068;2023-07-02T01:54:37;5.47;;;3.70;;
29916;SDS011;16786;49.466;11.068;2023-07-02T01:57:04;5.15;;;3.60;;
29916;SDS011;16786;49.466;11.068;2023-07-02T01:59:32;5.88;;;4.03;;
29916;SDS011;16786;49.466;11.068;2023-07-02T02:01:59;4.38;;;3.17;;
29916;SDS011;16786;49.466;11.068;2023-07-02T02:04:27;6.80;;;4.22;;
29916;SDS011;16786;49.466;11.068;2023-07-02T02:06:54;9.98;;;3.20;;
29916;SDS011;16786;49.466;11.068;2023-07-02T02:09:22;5.43;;;3.03;;
29916;SDS011;16786;49.466;11.068;2023-07-02T02:11:50;5.60;;;3.20;;
29916;SDS011;16786;49.466;11.068;2023-07-02T02:14:19;5.20;;;3.55;;
29916;SDS011;16786;49.466;11.068;2023-07-02T02:16:48;5.70;;;3.40;;
29916;SDS011;16786;49.466;11.068;2023-07-02T02:19:16;13.13;;;3.75;;
29916;SDS011;16786;49.466;11.068;2023-07-02T02:21:43;4.63;;;3.25;;
29916;SDS011;16786;49.466;11.068;2023-07-02T02:24:12;6.22;;;3.60;;
29916;SDS011;16786;49.466;11.068;2023-07-02T02:26:39;4.30;;;3.33;;
29916;SDS011;16786;49.466;11.068;2023-07-02T02:29:07;5.45;;;3.30;;
29916;SDS011;16786;49.466;11.068;2023-07-02T02:31:35;5.70;;;3.70;;
29916;SDS011;16786;49.466;11.068;2023-07-02T02:34:03;5.32;;;3.22;;
29916;SDS011;16786;49.466;11.068;2023-07-02T02:36:31;5.22;;;3.35;;
29916;SDS011;16786;49.466;11.068;2023-07-02T02:38:59;4.55;;;3.47;;
29916;SDS011;16786;49.466;11.068;2023-07-02T02:41:28;5.10;;;3.22;;
29916;SDS011;16786;49.466;11.068;2023-07-02T02:43:56;4.90;;;3.65;;
29916;SDS011;16786;49.466;11.068;2023-07-02T02:46:23;6.22;;;4.05;;
29916;SDS011;16786;49.466;11.068;2023-07-02T02:48:52;6.43;;;3.40;;
29916;SDS011;16786;49.466;11.068;2023-07-02T02:51:20;5.18;;;3.63;;
29916;SDS011;16786;49.466;11.068;2023-07-02T02:53:47;5.90;;;3.35;;
29916;SDS011;16786;49.466;11.068;2023-07-02T02:56:14;5.47;;;3.42;;
29916;SDS011;16786;49.466;11.068;2023-07-02T02:58:42;5.70;;;3.78;;
29916;SDS011;16786;49.466;11.068;2023-07-02T03:01:10;5.80;;;3.38;;
29916;SDS011;16786;49.466;11.068;2023-07-02T03:03:38;5.68;;;3.20;;
29916;SDS011;16786;49.466;11.068;2023-07-02T03:06:07;5.03;;;3.38;;
29916;SDS011;16786;49.466;11.068;2023-07-02T03:08:34;4.60;;;3.42;;
29916;SDS011;16786;49.466;11.068;2023-07-02T03:11:02;4.80;;;3.50;;
29916;SDS011;16786;49.466;11.068;2023-07-02T03:13:29;5.90;;;3.38;;
29916;SDS011;16786;49.466;11.068;2023-07-02T03:15:56;5.63;;;3.03;;
29916;SDS011;16786;49.466;11.068;2023-07-02T03:18:24;5.68;;;3.15;;
29916;SDS011;16786;49.466;11.068;2023-07-02T03:20:51;6.90;;;3.10;;
29916;SDS011;16786;49.466;11.068;2023-07-02T03:23:18;4.10;;;3.00;;
29916;SDS011;16786;49.466;11.068;2023-07-02T03:25:45;4.55;;;3.30;;
29916;SDS011;16786;49.466;11.068;2023-07-02T03:28:13;4.75;;;3.20;;
29916;SDS011;16786;49.466;11.068;2023-07-02T03:30:40;4.65;;;3.22;;
29916;SDS011;16786;49.466;11.068;2023-07-02T03:33:08;6.57;;;3.03;;
29916;SDS011;16786;49.466;11.068;2023-07-02T03:35:39;5.43;;;2.93;;
29916;SDS011;16786;49.466;11.068;2023-07-02T03:38:06;4.90;;;3.10;;
29916;SDS011;16786;49.466;11.068;2023-07-02T03:40:34;6.03;;;3.67;;
29916;SDS011;16786;49.466;11.068;2023-07-02T03:43:01;5.50;;;3.35;;
29916;SDS011;16786;49.466;11.068;2023-07-02T03:45:28;4.55;;;3.05;;
29916;SDS011;16786;49.466;11.068;2023-07-02T03:47:56;4.80;;;3.05;;
29916;SDS011;16786;49.466;11.068;2023-07-02T03:50:23;5.32;;;3.00;;
29916;SDS011;16786;49.466;11.068;2023-07-02T03:52:51;4.82;;;2.88;;
29916;SDS011;16786;49.466;11.068;2023-07-02T03:55:18;5.43;;;3.10;;
29916;SDS011;16786;49.466;11.068;2023-07-02T03:57:46;5.85;;;3.33;;
29916;SDS011;16786;49.466;11.068;2023-07-02T04:00:14;5.82;;;3.20;;
29916;SDS011;16786;49.466;11.068;2023-07-02T04:02:41;6.60;;;3.03;;
29916;SDS011;16786;49.466;11.068;2023-07-02T04:05:09;4.85;;;3.10;;
29916;SDS011;16786;49.466;11.068;2023-07-02T04:07:36;5.93;;;3.22;;
29916;SDS011;16786;49.466;11.068;2023-07-02T04:10:03;6.20;;;3.33;;
29916;SDS011;16786;49.466;11.068;2023-07-02T04:12:31;5.32;;;3.10;;
29916;SDS011;16786;49.466;11.068;2023-07-02T04:14:58;5.90;;;3.28;;
29916;SDS011;16786;49.466;11.068;2023-07-02T04:17:26;5.55;;;3.20;;
29916;SDS011;16786;49.466;11.068;2023-07-02T04:19:54;7.00;;;3.03;;
29916;SDS011;16786;49.466;11.068;2023-07-02T04:22:22;5.15;;;3.25;;
29916;SDS011;16786;49.466;11.068;2023-07-02T04:24:49;4.30;;;2.95;;
29916;SDS011;16786;49.466;11.068;2023-07-02T04:27:22;5.47;;;2.95;;
29916;SDS011;16786;49.466;11.068;2023-07-02T04:30:09;6.57;;;3.17;;
29916;SDS011;16786;49.466;11.068;2023-07-02T04:32:38;5.47;;;3.03;;
29916;SDS011;16786;49.466;11.068;2023-07-02T04:35:08;8.38;;;3.20;;
29916;SDS011;16786;49.466;11.068;2023-07-02T04:37:37;5.28;;;2.65;;
29916;SDS011;16786;49.466;11.068;2023-07-02T04:40:05;6.22;;;3.15;;
29916;SDS011;16786;49.466;11.068;2023-07-02T04:42:39;5.32;;;2.90;;
29916;SDS011;16786;49.466;11.068;2023-07-02T04:45:14;6.03;;;3.22;;
29916;SDS011;16786;49.466;11.068;2023-07-02T04:47:44;6.57;;;3.33;;
29916;SDS011;16786;49.466;11.068;2023-07-02T04:50:12;7.30;;;3.42;;
29916;SDS011;16786;49.466;11.068;2023-07-02T04:52:39;6.13;;;3.40;;
29916;SDS011;16786;49.466;11.068;2023-07-02T04:55:07;9.90;;;3.42;;
29916;SDS011;16786;49.466;11.068;2023-07-02T04:57:34;4.03;;;3.08;;
29916;SDS011;16786;49.466;11.068;2023-07-02T05:00:02;3.95;;;2.90;;
29916;SDS011;16786;49.466;11.068;2023-07-02T05:02:32;5.70;;;3.50;;
29916;SDS011;16786;49.466;11.068;2023-07-02T05:04:59;7.07;;;3.40;;
29916;SDS011;16786;49.466;11.068;2023-07-02T05:07:27;5.45;;;3.20;;
29916;SDS011;16786;49.466;11.068;2023-07-02T05:09:54;6.00;;;3.00;;
29916;SDS011;16786;49.466;11.068;2023-07-02T05:12:22;4.32;;;2.90;;
29916;SDS011;16786;49.466;11.068;2023-07-02T05:14:50;7.65;;;3.45;;
29916;SDS011;16786;49.466;11.068;2023-07-02T05:17:17;5.07;;;3.00;;
29916;SDS011;16786;49.466;11.068;2023-07-02T05:19:44;4.18;;;2.70;;
29916;SDS011;16786;49.466;11.068;2023-07-02T05:22:12;5.18;;;3.35;;
29916;SDS011;16786;49.466;11.068;2023-07-02T05:24:39;4.80;;;3.55;;
29916;SDS011;16786;49.466;11.068;2023-07-02T05:27:07;6.57;;;3.47;;
29916;SDS011;16786;49.466;11.068;2023-07-02T05:29:35;6.63;;;3.53;;
29916;SDS011;16786;49.466;11.068;2023-07-02T05:32:02;7.68;;;3.63;;
29916;SDS011;16786;49.466;11.068;2023-07-02T05:34:30;8.35;;;4.20;;
29916;SDS011;16786;49.466;11.068;2023-07-02T05:36:58;6.10;;;3.90;;
29916;SDS011;16786;49.466;11.068;2023-07-02T05:39:25;5.43;;;3.70;;
29916;SDS011;16786;49.466;11.068;2023-07-02T05:41:52;7.40;;;4.30;;
29916;SDS011;16786;49.466;11.068;2023-07-02T05:44:19;6.60;;;4.13;;
29916;SDS011;16786;49.466;11.068;2023-07-02T05:46:47;8.68;;;4.32;;
29916;SDS011;16786;49.466;11.068;2023-07-02T05:49:15;8.80;;;4.53;;
29916;SDS011;16786;49.466;11.068;2023-07-02T05:51:42;8.50;;;4.55;;
29916;SDS011;16786;49.466;11.068;2023-07-02T05:54:10;8.43;;;5.10;;
29916;SDS011;16786;49.466;11.068;2023-07-02T05:56:37;8.60;;;4.88;;
29916;SDS011;16786;49.466;11.068;2023-07-02T05:59:05;8.73;;;4.97;;
29916;SDS011;16786;49.466;11.068;2023-07-02T06:01:32;7.43;;;5.03;;
29916;SDS011;16786;49.466;11.068;2023-07-02T06:03:59;10.60;;;5.60;;
29916;SDS011;16786;49.466;11.068;2023-07-02T06:06:27;8.75;;;5.47;;
29916;SDS011;16786;49.466;11.068;2023-07-02T06:08:54;9.00;;;5.35;;
29916;SDS011;16786;49.466;11.068;2023-07-02T06:11:21;8.35;;;5.03;;
29916;SDS011;16786;49.466;11.068;2023-07-02T06:13:49;10.60;;;6.32;;
29916;SDS011;16786;49.466;11.068;2023-07-02T06:16:16;14.65;;;7.30;;
29916;SDS011;16786;49.466;11.068;2023-07-02T06:18:44;11.73;;;7.47;;
29916;SDS011;16786;49.466;11.068;2023-07-02T06:21:12;13.98;;;8.05;;
29916;SDS011;16786;49.466;11.068;2023-07-02T06:23:40;11.82;;;7.15;;
29916;SDS011;16786;49.466;11.068;2023-07-02T06:26:09;14.98;;;8.15;;
29916;SDS011;16786;49.466;11.068;2023-07-02T06:28:37;13.13;;;8.40;;
29916;SDS011;16786;49.466;11.068;2023-07-02T06:31:05;10.77;;;7.47;;
29916;SDS011;16786;49.466;11.068;2023-07-02T06:33:33;12.98;;;8.00;;
29916;SDS011;16786;49.466;11.068;2023-07-02T06:36:01;16.60;;;8.60;;
29916;SDS011;16786;49.466;11.068;2023-07-02T06:38:28;12.73;;;7.78;;
29916;SDS011;16786;49.466;11.068;2023-07-02T06:40:55;14.63;;;8.30;;
29916;SDS011;16786;49.466;11.068;2023-07-02T06:43:22;13.50;;;8.63;;
29916;SDS011;16786;49.466;11.068;2023-07-02T06:45:50;15.95;;;8.50;;
29916;SDS011;16786;49.466;11.068;2023-07-02T06:48:17;16.27;;;8.98;;
29916;SDS011;16786;49.466;11.068;2023-07-02T06:50:48;15.95;;;8.48;;
29916;SDS011;16786;49.466;11.068;2023-07-02T06:53:17;13.50;;;8.40;;
29916;SDS011;16786;49.466;11.068;2023-07-02T06:55:48;15.23;;;8.98;;
29916;SDS011;16786;49.466;11.068;2023-07-02T06:58:15;18.45;;;8.60;;
29916;SDS011;16786;49.466;11.068;2023-07-02T07:00:42;14.13;;;9.05;;
29916;SDS011;16786;49.466;11.068;2023-07-02T07:03:11;17.38;;;9.50;;
29916;SDS011;16786;49.466;11.068;2023-07-02T07:05:38;15.60;;;9.32;;
29916;SDS011;16786;49.466;11.068;2023-07-02T07:08:06;15.13;;;9.07;;
29916;SDS011;16786;49.466;11.068;2023-07-02T07:10:33;16.40;;;9.52;;
29916;SDS011;16786;49.466;11.068;2023-07-02T07:13:01;14.98;;;9.75;;
29916;SDS011;16786;49.466;11.068;2023-07-02T07:15:33;15.77;;;8.82;;
29916;SDS011;16786;49.466;11.068;2023-07-02T07:18:01;14.98;;;9.27;;
29916;SDS011;16786;49.466;11.068;2023-07-02T07:20:30;13.82;;;9.57;;
29916;SDS011;16786;49.466;11.068;2023-07-02T07:22:57;18.20;;;9.82;;
29916;SDS011;16786;49.466;11.068;2023-07-02T07:25:25;16.20;;;9.88;;
29916;SDS011;16786;49.466;11.068;2023-07-02T07:27:52;15.93;;;9.63;;
29916;SDS011;16786;49.466;11.068;2023-07-02T07:30:20;14.18;;;9.38;;
29916;SDS011;16786;49.466;11.068;2023-07-02T07:32:51;15.52;;;8.70;;
29916;SDS011;16786;49.466;11.068;2023-07-02T07:35:19;13.98;;;9.05;;
29916;SDS011;16786;49.466;11.068;2023-07-02T07:37:48;16.00;;;9.88;;
29916;SDS011;16786;49.466;11.068;2023-07-02T07:40:16;16.83;;;9.50;;
29916;SDS011;16786;49.466;11.068;2023-07-02T07:42:44;15.55;;;9.13;;
29916;SDS011;16786;49.466;11.068;2023-07-02T07:45:11;11.77;;;8.90;;
29916;SDS011;16786;49.466;11.068;2023-07-02T07:47:39;13.88;;;8.95;;
29916;SDS011;16786;49.466;11.068;2023-07-02T07:50:07;15.85;;;9.07;;
29916;SDS011;16786;49.466;11.068;2023-07-02T07:52:38;17.83;;;9.87;;
29916;SDS011;16786;49.466;11.068;2023-07-02T07:55:06;14.85;;;9.07;;
29916;SDS011;16786;49.466;11.068;2023-07-02T07:57:35;15.07;;;9.23;;
29916;SDS011;16786;49.466;11.068;2023-07-02T08:00:03;15.75;;;8.98;;
29916;SDS011;16786;49.466;11.068;2023-07-02T08:02:42;15.52;;;8.98;;
29916;SDS011;16786;49.466;11.068;2023-07-02T08:05:16;12.63;;;8.18;;
29916;SDS011;16786;49.466;11.068;2023-07-02T08:07:43;11.90;;;7.20;;
29916;SDS011;16786;49.466;11.068;2023-07-02T08:10:11;11.77;;;7.05;;
29916;SDS011;16786;49.466;11.068;2023-07-02T08:12:38;11.55;;;7.45;;
29916;SDS011;16786;49.466;11.068;2023-07-02T08:15:06;12.55;;;7.32;;
29916;SDS011;16786;49.466;11.068;2023-07-02T08:17:34;9.88;;;7.22;;
29916;SDS011;16786;49.466;11.068;2023-07-02T08:20:01;10.98;;;7.47;;
29916;SDS011;16786;49.466;11.068;2023-07-02T08:22:31;13.35;;;7.00;;
29916;SDS011;16786;49.466;11.068;2023-07-02T08:24:58;10.30;;;6.88;;
29916;SDS011;16786;49.466;11.068;2023-07-02T08:27:25;10.35;;;6.68;;
29916;SDS011;16786;49.466;11.068;2023-07-02T08:29:56;16.38;;;6.80;;
29916;SDS011;16786;49.466;11.068;2023-07-02T08:32:23;10.23;;;6.68;;
29916;SDS011;16786;49.466;11.068;2023-07-02T08:34:51;12.65;;;6.80;;
29916;SDS011;16786;49.466;11.068;2023-07-02T08:37:19;10.45;;;6.32;;
29916;SDS011;16786;49.466;11.068;2023-07-02T08:39:48;8.00;;;5.80;;
29916;SDS011;16786;49.466;11.068;2023-07-02T08:42:16;9.70;;;6.30;;
29916;SDS011;16786;49.466;11.068;2023-07-02T08:44:47;8.15;;;6.13;;
29916;SDS011;16786;49.466;11.068;2023-07-02T08:47:14;10.85;;;6.03;;
29916;SDS011;16786;49.466;11.068;2023-07-02T08:49:42;11.13;;;6.22;;
29916;SDS011;16786;49.466;11.068;2023-07-02T08:52:10;7.85;;;5.80;;
29916;SDS011;16786;49.466;11.068;2023-07-02T08:54:37;8.75;;;5.97;;
29916;SDS011;16786;49.466;11.068;2023-07-02T08:57:05;10.00;;;5.80;;
29916;SDS011;16786;49.466;11.068;2023-07-02T08:59:32;8.52;;;5.88;;
29916;SDS011;16786;49.466;11.068;2023-07-02T09:02:00;10.25;;;6.10;;
29916;SDS011;16786;49.466;11.068;2023-07-02T09:04:27;8.85;;;6.00;;
29916;SDS011;16786;49.466;11.068;2023-07-02T09:07:08;7.97;;;5.90;;
29916;SDS011;16786;49.466;11.068;2023-07-02T09:09:46;9.98;;;5.90;;
29916;SDS011;16786;49.466;11.068;2023-07-02T09:12:24;9.05;;;5.78;;
29916;SDS011;16786;49.466;11.068;2023-07-02T09:14:56;8.70;;;5.53;;
29916;SDS011;16786;49.466;11.068;2023-07-02T09:17:32;11.40;;;5.78;;
29916;SDS011;16786;49.466;11.068;2023-07-02T09:20:02;8.35;;;5.97;;
29916;SDS011;16786;49.466;11.068;2023-07-02T09:22:33;10.25;;;6.20;;
29916;SDS011;16786;49.466;11.068;2023-07-02T09:25:02;9.10;;;6.40;;
29916;SDS011;16786;49.466;11.068;2023-07-02T09:27:33;9.52;;;6.35;;
29916;SDS011;16786;49.466;11.068;2023-07-02T09:30:09;7.68;;;5.43;;
29916;SDS011;16786;49.466;11.068;2023-07-02T09:32:42;6.38;;;5.18;;
29916;SDS011;16786;49.466;11.068;2023-07-02T09:35:12;10.63;;;6.18;;
29916;SDS011;16786;49.466;11.068;2023-07-02T09:37:42;8.18;;;6.18;;
29916;SDS011;16786;49.466;11.068;2023-07-02T09:40:10;11.35;;;6.15;;
29916;SDS011;16786;49.466;11.068;2023-07-02T09:42:38;9.35;;;7.00;;
29916;SDS011;16786;49.466;11.068;2023-07-02T09:45:08;9.57;;;6.75;;
29916;SDS011;16786;49.466;11.068;2023-07-02T09:47:39;9.20;;;5.72;;
29916;SDS011;16786;49.466;11.068;2023-07-02T09:50:12;9.80;;;5.90;;
29916;SDS011;16786;49.466;11.068;2023-07-02T09:52:41;7.05;;;5.70;;
29916;SDS011;16786;49.466;11.068;2023-07-02T09:55:11;8.23;;;6.03;;
29916;SDS011;16786;49.466;11.068;2023-07-02T09:57:39;10.35;;;6.68;;
29916;SDS011;16786;49.466;11.068;2023-07-02T10:00:07;13.68;;;6.05;;
29916;SDS011;16786;49.466;11.068;2023-07-02T10:02:37;9.10;;;6.18;;
29916;SDS011;16786;49.466;11.068;2023-07-02T10:05:05;7.45;;;5.78;;
29916;SDS011;16786;49.466;11.068;2023-07-02T10:07:32;10.13;;;6.07;;
29916;SDS011;16786;49.466;11.068;2023-07-02T10:10:00;10.27;;;6.38;;
29916;SDS011;16786;49.466;11.068;2023-07-02T10:12:29;9.18;;;6.30;;
29916;SDS011;16786;49.466;11.068;2023-07-02T10:14:57;8.23;;;6.22;;
29916;SDS011;16786;49.466;11.068;2023-07-02T10:17:29;12.98;;;7.10;;
29916;SDS011;16786;49.466;11.068;2023-07-02T10:20:04;9.55;;;6.57;;
29916;SDS011;16786;49.466;11.068;2023-07-02T10:22:46;8.50;;;6.20;;
29916;SDS011;16786;49.466;11.068;2023-07-02T10:25:29;10.40;;;6.72;;
29916;SDS011;16786;49.466;11.068;2023-07-02T10:27:58;8.88;;;6.35;;
29916;SDS011;16786;49.466;11.068;2023-07-02T10:30:36;10.32;;;7.07;;
29916;SDS011;16786;49.466;11.068;2023-07-02T10:33:11;10.35;;;7.05;;
29916;SDS011;16786;49.466;11.068;2023-07-02T10:36:00;11.30;;;6.60;;
29916;SDS011;16786;49.466;11.068;2023-07-02T10:38:28;9.80;;;7.35;;
29916;SDS011;16786;49.466;11.068;2023-07-02T10:40:59;15.90;;;7.18;;
29916;SDS011;16786;49.466;11.068;2023-07-02T10:43:30;10.77;;;7.47;;
29916;SDS011;16786;49.466;11.068;2023-07-02T10:46:02;9.10;;;7.10;;
29916;SDS011;16786;49.466;11.068;2023-07-02T10:48:30;10.50;;;6.90;;
29916;SDS011;16786;49.466;11.068;2023-07-02T10:50:57;14.00;;;7.30;;
29916;SDS011;16786;49.466;11.068;2023-07-02T10:53:25;8.77;;;6.85;;
29916;SDS011;16786;49.466;11.068;2023-07-02T10:56:05;10.48;;;6.93;;
29916;SDS011;16786;49.466;11.068;2023-07-02T10:58:44;11.73;;;6.57;;
29916;SDS011;16786;49.466;11.068;2023-07-02T11:01:13;8.60;;;6.57;;
29916;SDS011;16786;49.466;11.068;2023-07-02T11:03:55;7.75;;;6.80;;
29916;SDS011;16786;49.466;11.068;2023-07-02T11:06:29;10.00;;;6.95;;
29916;SDS011;16786;49.466;11.068;2023-07-02T11:08:59;8.40;;;6.40;;
29916;SDS011;16786;49.466;11.068;2023-07-02T11:11:27;10.52;;;6.78;;
29916;SDS011;16786;49.466;11.068;2023-07-02T11:13:54;10.18;;;7.63;;
29916;SDS011;16786;49.466;11.068;2023-07-02T11:16:23;9.02;;;6.47;;
29916;SDS011;16786;49.466;11.068;2023-07-02T11:18:53;10.18;;;6.97;;
29916;SDS011;16786;49.466;11.068;2023-07-02T11:21:36;10.25;;;6.78;;
29916;SDS011;16786;49.466;11.068;2023-07-02T11:24:05;9.20;;;6.80;;
29916;SDS011;16786;49.466;11.068;2023-07-02T11:26:38;12.70;;;7.40;;
29916;SDS011;16786;49.466;11.068;2023-07-02T11:29:12;8.52;;;7.10;;
29916;SDS011;16786;49.466;11.068;2023-07-02T11:31:45;11.27;;;7.28;;
29916;SDS011;16786;49.466;11.068;2023-07-02T11:34:16;15.55;;;7.20;;
29916;SDS011;16786;49.466;11.068;2023-07-02T11:36:47;10.30;;;8.20;;
29916;SDS011;16786;49.466;11.068;2023-07-02T11:39:15;11.43;;;8.00;;
29916;SDS011;16786;49.466;11.068;2023-07-02T11:41:43;10.20;;;7.55;;
29916;SDS011;16786;49.466;11.068;2023-07-02T11:44:11;11.20;;;7.75;;
29916;SDS011;16786;49.466;11.068;2023-07-02T11:46:38;9.88;;;7.95;;
29916;SDS011;16786;49.466;11.068;2023-07-02T11:49:06;11.38;;;8.18;;
29916;SDS011;16786;49.466;11.068;2023-07-02T11:51:36;10.32;;;7.78;;
29916;SDS011;16786;49.466;11.068;2023-07-02T11:54:04;10.30;;;8.35;;
29916;SDS011;16786;49.466;11.068;2023-07-02T11:56:32;13.32;;;9.30;;
29916;SDS011;16786;49.466;11.068;2023-07-02T11:59:00;13.60;;;9.07;;
29916;SDS011;16786;49.466;11.068;2023-07-02T12:01:30;14.68;;;9.30;;
29916;SDS011;16786;49.466;11.068;2023-07-02T12:03:58;13.40;;;9.70;;
29916;SDS011;16786;49.466;11.068;2023-07-02T12:06:26;13.32;;;9.68;;
29916;SDS011;16786;49.466;11.068;2023-07-02T12:08:53;15.13;;;10.05;;
29916;SDS011;16786;49.466;11.068;2023-07-02T12:11:20;17.92;;;10.15;;
29916;SDS011;16786;49.466;11.068;2023-07-02T12:13:48;14.85;;;9.82;;
29916;SDS011;16786;49.466;11.068;2023-07-02T12:16:15;17.70;;;11.15;;
29916;SDS011;16786;49.466;11.068;2023-07-02T12:18:42;16.52;;;11.60;;
29916;SDS011;16786;49.466;11.068;2023-07-02T12:21:10;17.80;;;10.98;;
29916;SDS011;16786;49.466;11.068;2023-07-02T12:23:37;20.17;;;10.93;;
29916;SDS011;16786;49.466;11.068;2023-07-02T12:26:04;18.70;;;11.48;;
29916;SDS011;16786;49.466;11.068;2023-07-02T12:28:31;14.45;;;11.23;;
29916;SDS011;16786;49.466;11.068;2023-07-02T12:30:59;18.90;;;11.45;;
29916;SDS011;16786;49.466;11.068;2023-07-02T12:33:26;16.25;;;11.20;;
29916;SDS011;16786;49.466;11.068;2023-07-02T12:35:54;16.20;;;11.30;;
29916;SDS011;16786;49.466;11.068;2023-07-02T12:38:21;17.17;;;11.05;;
29916;SDS011;16786;49.466;11.068;2023-07-02T12:40:48;19.05;;;10.82;;
29916;SDS011;16786;49.466;11.068;2023-07-02T12:43:16;15.95;;;10.65;;
29916;SDS011;16786;49.466;11.068;2023-07-02T12:45:43;17.65;;;11.25;;
29916;SDS011;16786;49.466;11.068;2023-07-02T12:48:11;16.58;;;11.70;;
29916;SDS011;16786;49.466;11.068;2023-07-02T12:50:38;15.65;;;10.40;;
29916;SDS011;16786;49.466;11.068;2023-07-02T12:53:06;15.90;;;10.85;;
29916;SDS011;16786;49.466;11.068;2023-07-02T12:55:33;15.93;;;11.18;;
29916;SDS011;16786;49.466;11.068;2023-07-02T12:58:00;15.05;;;10.40;;
29916;SDS011;16786;49.466;11.068;2023-07-02T13:00:28;16.73;;;11.85;;
29916;SDS011;16786;49.466;11.068;2023-07-02T13:02:55;16.70;;;11.10;;
29916;SDS011;16786;49.466;11.068;2023-07-02T13:05:31;14.70;;;10.45;;
29916;SDS011;16786;49.466;11.068;2023-07-02T13:07:59;16.90;;;10.45;;
29916;SDS011;16786;49.466;11.068;2023-07-02T13:10:26;13.18;;;10.38;;
29916;SDS011;16786;49.466;11.068;2023-07-02T13:12:55;15.85;;;10.75;;
29916;SDS011;16786;49.466;11.068;2023-07-02T13:15:32;15.95;;;10.80;;
29916;SDS011;16786;49.466;11.068;2023-07-02T13:18:01;14.98;;;10.40;;
29916;SDS011;16786;49.466;11.068;2023-07-02T13:20:29;19.15;;;11.00;;
29916;SDS011;16786;49.466;11.068;2023-07-02T13:22:57;15.52;;;10.98;;
29916;SDS011;16786;49.466;11.068;2023-07-02T13:25:25;16.95;;;11.48;;
29916;SDS011;16786;49.466;11.068;2023-07-02T13:27:52;14.73;;;11.30;;
29916;SDS011;16786;49.466;11.068;2023-07-02T13:30:20;18.42;;;12.02;;
29916;SDS011;16786;49.466;11.068;2023-07-02T13:32:48;18.25;;;12.32;;
29916;SDS011;16786;49.466;11.068;2023-07-02T13:35:15;17.73;;;11.65;;
29916;SDS011;16786;49.466;11.068;2023-07-02T13:37:42;20.88;;;12.68;;
29916;SDS011;16786;49.466;11.068;2023-07-02T13:40:10;15.57;;;12.30;;
29916;SDS011;16786;49.466;11.068;2023-07-02T13:42:39;18.23;;;12.10;;
29916;SDS011;16786;49.466;11.068;2023-07-02T13:45:08;18.38;;;12.68;;
29916;SDS011;16786;49.466;11.068;2023-07-02T13:47:36;19.92;;;12.45;;
29916;SDS011;16786;49.466;11.068;2023-07-02T13:50:04;19.08;;;12.02;;
29916;SDS011;16786;49.466;11.068;2023-07-02T13:52:32;22.98;;;12.85;;
29916;SDS011;16786;49.466;11.068;2023-07-02T13:54:59;19.25;;;13.30;;
29916;SDS011;16786;49.466;11.068;2023-07-02T13:57:27;24.35;;;13.00;;
29916;SDS011;16786;49.466;11.068;2023-07-02T13:59:54;19.30;;;13.20;;
29916;SDS011;16786;49.466;11.068;2023-07-02T14:02:24;19.90;;;13.45;;
29916;SDS011;16786;49.466;11.068;2023-07-02T14:04:51;21.20;;;13.23;;
29916;SDS011;16786;49.466;11.068;2023-07-02T14:07:19;19.25;;;14.48;;
29916;SDS011;16786;49.466;11.068;2023-07-02T14:09:47;24.90;;;16.52;;
29916;SDS011;16786;49.466;11.068;2023-07-02T14:12:14;25.10;;;16.88;;
29916;SDS011;16786;49.466;11.068;2023-07-02T14:14:41;20.83;;;16.08;;
29916;SDS011;16786;49.466;11.068;2023-07-02T14:17:09;20.92;;;15.55;;
29916;SDS011;16786;49.466;11.068;2023-07-02T14:19:36;24.52;;;15.75;;
29916;SDS011;16786;49.466;11.068;2023-07-02T14:22:04;22.40;;;14.70;;
29916;SDS011;16786;49.466;11.068;2023-07-02T14:24:31;18.83;;;14.68;;
29916;SDS011;16786;49.466;11.068;2023-07-02T14:26:58;19.98;;;15.05;;
29916;SDS011;16786;49.466;11.068;2023-07-02T14:29:26;21.33;;;15.40;;
29916;SDS011;16786;49.466;11.068;2023-07-02T14:31:54;18.98;;;14.25;;
29916;SDS011;16786;49.466;11.068;2023-07-02T14:34:21;19.58;;;14.57;;
29916;SDS011;16786;49.466;11.068;2023-07-02T14:36:48;20.95;;;14.38;;